createdAt,value
2023-01-19T00:00:50.586Z,81.77
2023-01-19T00:03:17.979Z,81.01
2023-01-19T00:05:45.430Z,82.48
2023-01-19T00:08:15.531Z,81.90
2023-01-19T00:10:45.042Z,81.62
2023-01-19T00:13:11.924Z,81.93
2023-01-19T00:15:38.789Z,82.10
2023-01-19T00:18:05.636Z,81.48
2023-01-19T00:20:32.903Z,80.62
2023-01-19T00:23:00.186Z,80.57
2023-01-19T00:25:27.296Z,80.93
2023-01-19T00:27:54.051Z,81.16
2023-01-19T00:30:20.801Z,81.31
2023-01-19T00:32:47.566Z,81.34
2023-01-19T00:35:14.538Z,78.93
2023-01-19T00:37:41.246Z,79.02
2023-01-19T00:40:08.777Z,79.17
2023-01-19T00:42:41.711Z,78.63
2023-01-19T00:45:10.225Z,78.70
2023-01-19T00:47:37.086Z,78.84
2023-01-19T00:50:04.267Z,77.74
2023-01-19T00:52:31.145Z,76.48
2023-01-19T00:54:57.907Z,76.93
2023-01-19T00:57:24.530Z,77.21
2023-01-19T00:59:51.270Z,78.48
2023-01-19T01:02:18.113Z,78.47
2023-01-19T01:04:44.889Z,77.66
2023-01-19T01:07:11.596Z,78.73
2023-01-19T01:09:38.309Z,76.59
2023-01-19T01:12:05.866Z,77.27
2023-01-19T01:14:33.059Z,75.83
2023-01-19T01:17:00.704Z,74.82
2023-01-19T01:19:27.488Z,73.79
2023-01-19T01:21:55.589Z,74.47
2023-01-19T01:24:22.646Z,73.57
2023-01-19T01:26:49.426Z,73.77
2023-01-19T01:29:16.353Z,74.87
2023-01-19T01:31:43.065Z,74.78
2023-01-19T01:34:09.798Z,75.40
2023-01-19T01:36:36.515Z,76.00
2023-01-19T01:39:03.484Z,75.23
2023-01-19T01:41:30.727Z,75.26
2023-01-19T01:43:58.946Z,75.60
2023-01-19T01:46:28.001Z,74.66
2023-01-19T01:48:57.783Z,74.05
2023-01-19T01:51:36.760Z,71.41
2023-01-19T01:54:29.642Z,71.96
2023-01-19T01:57:02.179Z,72.32
2023-01-19T01:59:39.351Z,72.22
2023-01-19T02:02:38.249Z,72.08
2023-01-19T02:05:10.898Z,72.74
2023-01-19T02:08:07.099Z,73.38
2023-01-19T02:10:52.269Z,71.89
2023-01-19T02:13:22.634Z,72.65
2023-01-19T02:15:52.812Z,72.13
2023-01-19T02:18:22.316Z,69.39
2023-01-19T02:21:15.318Z,65.31
2023-01-19T02:23:53.520Z,58.28
2023-01-19T02:26:26.812Z,57.20
2023-01-19T02:28:58.033Z,59.46
2023-01-19T02:31:26.166Z,59.71
2023-01-19T02:33:54.171Z,61.44
2023-01-19T02:36:25.925Z,52.08
2023-01-19T02:38:56.675Z,49.69
2023-01-19T02:41:29.214Z,49.10
2023-01-19T02:43:58.610Z,48.75
2023-01-19T02:46:26.016Z,44.92
2023-01-19T02:48:52.778Z,43.80
2023-01-19T02:51:24.674Z,40.72
2023-01-19T02:54:29.776Z,40.21
2023-01-19T02:57:10.818Z,40.13
2023-01-19T02:59:50.117Z,39.22
2023-01-19T03:02:42.265Z,42.12
2023-01-19T03:05:26.903Z,41.04
2023-01-19T03:08:04.704Z,43.95
2023-01-19T03:11:05.033Z,41.17
2023-01-19T03:13:46.803Z,40.34
2023-01-19T03:16:38.108Z,39.07
2023-01-19T03:19:22.899Z,38.33
2023-01-19T03:21:55.164Z,39.73
2023-01-19T03:24:24.996Z,42.02
2023-01-19T03:27:00.396Z,42.42
2023-01-19T03:29:30.912Z,41.01
2023-01-19T03:32:01.691Z,39.97
2023-01-19T03:34:29.774Z,40.27
2023-01-19T03:37:02.712Z,38.02
2023-01-19T03:39:29.601Z,40.26
2023-01-19T03:42:03.196Z,45.32
2023-01-19T03:44:32.391Z,42.89
2023-01-19T03:47:00.289Z,40.72
2023-01-19T03:49:28.575Z,39.82
2023-01-19T03:51:57.022Z,38.56
2023-01-19T03:54:23.684Z,39.95
2023-01-19T03:56:52.497Z,43.49
2023-01-19T03:59:20.002Z,44.09
2023-01-19T04:01:47.077Z,38.92
2023-01-19T04:04:15.650Z,37.94
2023-01-19T04:06:42.957Z,37.84
2023-01-19T04:09:09.899Z,38.28
2023-01-19T04:11:36.678Z,39.65
2023-01-19T04:14:03.854Z,39.37
2023-01-19T04:16:30.603Z,39.71
2023-01-19T04:18:57.424Z,37.71
2023-01-19T04:21:24.111Z,38.79
2023-01-19T04:23:50.904Z,40.29
2023-01-19T04:26:17.953Z,37.85
2023-01-19T04:28:44.793Z,37.60
2023-01-19T04:31:11.437Z,37.96
2023-01-19T04:33:38.205Z,38.75
2023-01-19T04:36:05.250Z,37.99
2023-01-19T04:38:32.012Z,39.34
2023-01-19T04:40:58.768Z,38.02
2023-01-19T04:43:25.499Z,36.91
2023-01-19T04:45:52.499Z,35.98
2023-01-19T04:48:20.194Z,36.49
2023-01-19T04:50:47.360Z,36.90
2023-01-19T04:53:16.264Z,36.55
2023-01-19T04:55:42.930Z,37.59
2023-01-19T04:58:10.010Z,38.03
2023-01-19T05:00:37.993Z,36.85
2023-01-19T05:03:05.478Z,36.75
2023-01-19T05:05:33.144Z,36.00
2023-01-19T05:08:00.574Z,35.62
2023-01-19T05:10:27.244Z,36.42
2023-01-19T05:12:53.995Z,38.36
2023-01-19T05:15:21.216Z,37.79
2023-01-19T05:17:48.062Z,37.60
2023-01-19T05:20:16.427Z,37.03
2023-01-19T05:22:48.426Z,36.98
2023-01-19T05:25:15.432Z,37.61
2023-01-19T05:27:42.057Z,37.13
2023-01-19T05:30:09.872Z,36.61
2023-01-19T05:32:36.541Z,37.94
2023-01-19T05:35:03.494Z,37.07
2023-01-19T05:37:31.811Z,38.09
2023-01-19T05:39:58.832Z,36.11
2023-01-19T05:42:25.513Z,34.77
2023-01-19T05:44:52.857Z,33.89
2023-01-19T05:47:19.515Z,36.59
2023-01-19T05:49:46.572Z,36.20
2023-01-19T05:52:13.955Z,34.50
2023-01-19T05:54:40.844Z,33.95
2023-01-19T05:57:07.877Z,33.21
2023-01-19T05:59:34.791Z,32.92
2023-01-19T06:02:01.508Z,33.77
2023-01-19T06:04:28.374Z,33.97
2023-01-19T06:06:55.085Z,33.22
2023-01-19T06:09:21.734Z,34.08
2023-01-19T06:11:48.660Z,33.21
2023-01-19T06:14:15.449Z,34.11
2023-01-19T06:16:42.223Z,32.97
2023-01-19T06:19:09.729Z,32.58
2023-01-19T06:21:36.428Z,33.27
2023-01-19T06:24:03.633Z,33.02
2023-01-19T06:26:30.256Z,33.08
2023-01-19T06:28:57.071Z,32.12
2023-01-19T06:31:23.695Z,32.11
2023-01-19T06:33:50.368Z,32.17
2023-01-19T06:36:17.066Z,32.34
2023-01-19T06:38:44.138Z,32.55
2023-01-19T06:41:10.744Z,32.88
2023-01-19T06:43:37.503Z,32.69
2023-01-19T06:46:04.839Z,32.40
2023-01-19T06:48:31.680Z,32.15
2023-01-19T06:50:59.732Z,32.41
2023-01-19T06:53:28.335Z,30.55
2023-01-19T06:56:02.124Z,31.13
2023-01-19T06:58:31.394Z,30.36
2023-01-19T07:01:03.674Z,31.38
2023-01-19T07:03:31.034Z,32.26
2023-01-19T07:05:58.108Z,30.78
2023-01-19T07:08:24.829Z,31.42
2023-01-19T07:11:23.614Z,31.92
2023-01-19T07:13:40.543Z,31.32
2023-01-19T07:16:13.489Z,30.69
2023-01-19T07:18:41.096Z,31.85
2023-01-19T07:21:08.412Z,30.56
2023-01-19T07:23:35.493Z,32.05
2023-01-19T07:26:02.151Z,30.07
2023-01-19T07:28:31.218Z,32.15
2023-01-19T07:30:58.022Z,31.42
2023-01-19T07:33:26.214Z,31.65
2023-01-19T07:35:53.278Z,31.61
2023-01-19T07:38:20.437Z,30.59
2023-01-19T07:40:47.304Z,31.35
2023-01-19T07:43:14.567Z,29.72
2023-01-19T07:45:41.564Z,31.49
2023-01-19T07:48:08.391Z,30.25
2023-01-19T07:50:35.037Z,29.19
2023-01-19T07:53:07.332Z,31.07
2023-01-19T07:55:34.260Z,31.02
2023-01-19T07:58:01.366Z,29.98
2023-01-19T08:00:28.144Z,30.26
2023-01-19T08:03:03.546Z,31.72
2023-01-19T08:05:30.286Z,31.16
2023-01-19T08:07:58.114Z,30.54
2023-01-19T08:10:28.921Z,29.17
2023-01-19T08:12:57.017Z,30.53
2023-01-19T08:15:24.923Z,28.94
2023-01-19T08:18:02.765Z,29.62
2023-01-19T08:20:30.228Z,29.33
2023-01-19T08:23:01.192Z,28.36
2023-01-19T08:25:36.776Z,29.38
2023-01-19T08:28:06.553Z,29.04
2023-01-19T08:30:33.393Z,28.64
2023-01-19T08:33:08.221Z,29.10
2023-01-19T08:35:41.564Z,29.85
2023-01-19T08:38:10.147Z,28.89
2023-01-19T08:40:39.275Z,29.87
2023-01-19T08:43:12.008Z,29.48
2023-01-19T08:45:41.640Z,27.85
2023-01-19T08:48:08.495Z,28.62
2023-01-19T08:50:35.443Z,28.05
2023-01-19T08:53:06.514Z,28.68
2023-01-19T08:55:36.060Z,28.99
2023-01-19T08:58:04.650Z,28.40
2023-01-19T09:00:33.709Z,29.24
2023-01-19T09:03:04.766Z,28.55
2023-01-19T09:05:37.572Z,28.34
2023-01-19T09:08:11.038Z,29.13
2023-01-19T09:10:39.208Z,27.75
2023-01-19T09:13:08.572Z,28.60
2023-01-19T09:15:37.800Z,28.49
2023-01-19T09:18:07.171Z,27.60
2023-01-19T09:20:36.235Z,28.32
2023-01-19T09:23:03.494Z,27.49
2023-01-19T09:25:30.857Z,27.40
2023-01-19T09:27:59.837Z,27.96
2023-01-19T09:30:27.854Z,27.41
2023-01-19T09:32:54.625Z,28.82
2023-01-19T09:35:22.021Z,28.54
2023-01-19T09:37:48.751Z,29.77
2023-01-19T09:40:18.772Z,28.81
2023-01-19T09:42:53.541Z,28.51
2023-01-19T09:45:31.351Z,29.20
2023-01-19T09:48:00.157Z,28.87
2023-01-19T09:50:40.151Z,29.96
2023-01-19T09:53:17.230Z,29.99
2023-01-19T09:55:44.160Z,30.85
2023-01-19T09:58:19.280Z,28.93
2023-01-19T10:01:02.755Z,28.97
2023-01-19T10:03:30.242Z,29.59
2023-01-19T10:06:04.193Z,28.72
2023-01-19T10:08:36.923Z,30.06
2023-01-19T10:11:06.496Z,29.19
2023-01-19T10:13:43.869Z,29.49
2023-01-19T10:16:19.582Z,30.47
2023-01-19T10:18:48.544Z,31.30
2023-01-19T10:21:31.466Z,31.32
2023-01-19T10:24:26.173Z,30.44
2023-01-19T10:26:54.892Z,29.92
2023-01-19T10:29:38.281Z,29.72
2023-01-19T10:32:09.974Z,39.21
2023-01-19T10:34:36.950Z,41.69
2023-01-19T10:37:25.676Z,33.61
2023-01-19T10:39:55.564Z,32.39
2023-01-19T10:42:22.354Z,36.04
2023-01-19T10:44:50.400Z,34.90
2023-01-19T10:47:20.771Z,30.41
2023-01-19T10:49:48.946Z,30.74
2023-01-19T10:52:36.783Z,31.99
2023-01-19T10:55:07.774Z,30.53
2023-01-19T10:57:38.828Z,33.01
2023-01-19T11:00:07.917Z,31.71
2023-01-19T11:02:34.829Z,30.00
2023-01-19T11:05:22.882Z,28.67
2023-01-19T11:07:49.731Z,28.19
2023-01-19T11:10:16.572Z,28.35
2023-01-19T11:13:04.360Z,28.65
2023-01-19T11:15:40.564Z,32.49
2023-01-19T11:18:07.916Z,36.22
2023-01-19T11:20:54.080Z,37.57
2023-01-19T11:23:43.153Z,41.27
2023-01-19T11:26:16.350Z,40.97
2023-01-19T11:28:48.564Z,41.87
2023-01-19T11:31:15.270Z,40.89
2023-01-19T11:33:50.542Z,41.40
2023-01-19T11:36:21.477Z,41.65
2023-01-19T11:38:53.547Z,42.91
2023-01-19T11:41:23.136Z,44.85
2023-01-19T11:43:53.694Z,45.51
2023-01-19T11:46:22.559Z,47.09
2023-01-19T11:49:04.783Z,46.13
2023-01-19T11:51:56.492Z,46.98
2023-01-19T11:54:31.743Z,48.23
2023-01-19T11:57:00.308Z,47.92
2023-01-19T11:59:27.123Z,49.79
2023-01-19T12:02:00.599Z,51.16
2023-01-19T12:04:40.416Z,52.09
2023-01-19T12:07:12.431Z,51.38
2023-01-19T12:09:45.242Z,52.52
2023-01-19T12:12:16.858Z,52.59
2023-01-19T12:15:23.540Z,53.62
2023-01-19T12:17:54.218Z,54.10
2023-01-19T12:20:23.817Z,53.36
2023-01-19T12:23:09.484Z,53.12
2023-01-19T12:26:14.452Z,54.49
2023-01-19T12:28:45.566Z,54.30
2023-01-19T12:31:16.677Z,55.19
2023-01-19T12:33:43.410Z,54.00
2023-01-19T12:36:38.887Z,53.31
2023-01-19T12:39:19.232Z,54.46
2023-01-19T12:41:47.230Z,52.76
2023-01-19T12:44:16.611Z,53.20
2023-01-19T12:46:44.415Z,54.00
2023-01-19T12:49:26.921Z,53.55
2023-01-19T12:52:11.740Z,53.39
2023-01-19T12:54:42.597Z,53.65
2023-01-19T12:57:21.138Z,52.50
2023-01-19T12:59:56.535Z,53.37
2023-01-19T13:02:23.369Z,52.42
2023-01-19T13:05:19.623Z,51.18
2023-01-19T13:08:01.565Z,51.63
2023-01-19T13:10:54.468Z,50.14
2023-01-19T13:13:37.345Z,50.45
2023-01-19T13:16:19.312Z,50.30
2023-01-19T13:19:06.752Z,50.56
2023-01-19T13:21:44.647Z,48.69
2023-01-19T13:24:24.384Z,47.37
2023-01-19T13:26:51.523Z,46.02
2023-01-19T13:29:30.237Z,47.03
2023-01-19T13:32:05.050Z,48.67
2023-01-19T13:34:40.412Z,48.03
2023-01-19T13:37:17.170Z,47.42
2023-01-19T13:39:45.317Z,47.70
2023-01-19T13:42:20.920Z,47.75
2023-01-19T13:44:52.398Z,47.21
2023-01-19T13:47:25.166Z,47.39
2023-01-19T13:49:56.905Z,47.72
2023-01-19T13:52:28.753Z,47.22
2023-01-19T13:54:59.856Z,46.04
2023-01-19T13:57:34.171Z,46.75
2023-01-19T14:00:14.202Z,45.64
2023-01-19T14:03:02.011Z,46.92
2023-01-19T14:05:34.357Z,49.54
2023-01-19T14:08:13.445Z,47.53
2023-01-19T14:10:41.984Z,48.12
2023-01-19T14:13:16.597Z,46.98
2023-01-19T14:15:44.859Z,48.71
2023-01-19T14:18:31.816Z,48.71
2023-01-19T14:21:02.804Z,46.89
2023-01-19T14:23:52.229Z,48.51
2023-01-19T14:26:37.618Z,46.84
2023-01-19T14:29:10.329Z,44.40
2023-01-19T14:32:10.067Z,36.13
2023-01-19T14:34:41.564Z,34.72
2023-01-19T14:37:25.321Z,32.71
2023-01-19T14:39:56.075Z,34.24
2023-01-19T14:42:33.032Z,33.89
2023-01-19T14:45:07.010Z,36.92
2023-01-19T14:47:40.111Z,39.57
2023-01-19T14:50:19.614Z,42.90
2023-01-19T14:53:08.035Z,44.29
2023-01-19T14:55:39.694Z,39.04
2023-01-19T14:58:15.458Z,36.32
2023-01-19T15:00:43.317Z,35.22
2023-01-19T15:03:10.761Z,35.98
2023-01-19T15:05:43.571Z,39.14
2023-01-19T15:08:17.675Z,44.16
2023-01-19T15:10:45.940Z,45.39
2023-01-19T15:13:20.496Z,43.97
2023-01-19T15:15:47.749Z,41.16
2023-01-19T15:18:19.349Z,40.83
2023-01-19T15:20:46.096Z,41.85
2023-01-19T15:23:13.014Z,44.15
2023-01-19T15:25:39.880Z,46.21
2023-01-19T15:28:18.361Z,46.50
2023-01-19T15:30:45.541Z,46.67
2023-01-19T15:33:27.241Z,43.88
2023-01-19T15:35:54.119Z,43.38
2023-01-19T15:38:20.809Z,44.79
2023-01-19T15:40:51.401Z,44.76
2023-01-19T15:43:18.908Z,44.29
2023-01-19T15:45:54.656Z,44.25
2023-01-19T15:48:22.422Z,44.59
2023-01-19T15:50:49.003Z,45.17
2023-01-19T15:53:18.566Z,46.42
2023-01-19T15:55:49.406Z,47.29
2023-01-19T15:58:16.635Z,46.59
2023-01-19T16:00:43.534Z,45.44
2023-01-19T16:03:11.064Z,44.99
2023-01-19T16:05:43.436Z,46.77
2023-01-19T16:08:11.877Z,47.16
2023-01-19T16:10:39.625Z,47.11
2023-01-19T16:13:06.542Z,47.79
2023-01-19T16:15:35.184Z,48.48
2023-01-19T16:18:02.732Z,48.25
2023-01-19T16:20:29.536Z,47.63
2023-01-19T16:23:03.196Z,48.01
2023-01-19T16:25:36.499Z,48.29
2023-01-19T16:28:03.413Z,48.26
2023-01-19T16:30:30.168Z,48.70
2023-01-19T16:32:56.946Z,48.73
2023-01-19T16:35:23.680Z,48.42
2023-01-19T16:37:51.353Z,49.29
2023-01-19T16:40:20.272Z,49.41
2023-01-19T16:42:47.404Z,48.16
2023-01-19T16:45:14.107Z,46.65
2023-01-19T16:47:41.045Z,47.05
2023-01-19T16:50:11.885Z,48.22
2023-01-19T16:52:38.979Z,46.99
2023-01-19T16:55:09.514Z,45.41
2023-01-19T16:57:39.193Z,44.78
2023-01-19T17:00:09.302Z,45.45
2023-01-19T17:02:36.735Z,45.71
2023-01-19T17:05:04.363Z,45.96
2023-01-19T17:07:31.221Z,44.14
2023-01-19T17:09:57.875Z,45.01
2023-01-19T17:12:24.805Z,45.34
2023-01-19T17:14:51.406Z,46.97
2023-01-19T17:17:18.500Z,46.69
2023-01-19T17:19:45.339Z,46.85
2023-01-19T17:22:12.993Z,48.92
2023-01-19T17:24:42.382Z,49.87
2023-01-19T17:27:09.922Z,50.07
2023-01-19T17:29:36.740Z,50.49
2023-01-19T17:32:04.079Z,50.01
2023-01-19T17:34:30.764Z,47.74
2023-01-19T17:37:02.945Z,45.77
2023-01-19T17:39:30.028Z,47.06
2023-01-19T17:41:56.925Z,48.22
2023-01-19T17:44:23.882Z,47.96
2023-01-19T17:46:50.726Z,45.72
2023-01-19T17:49:17.592Z,45.82
2023-01-19T17:51:44.353Z,46.27
2023-01-19T17:54:11.362Z,46.78
2023-01-19T17:56:39.565Z,48.47
2023-01-19T17:59:08.095Z,48.92
2023-01-19T18:01:39.957Z,50.33
2023-01-19T18:04:21.945Z,50.07
2023-01-19T18:06:50.165Z,50.55
2023-01-19T18:09:16.872Z,50.74
2023-01-19T18:11:43.619Z,50.34
2023-01-19T18:14:12.021Z,51.32
2023-01-19T18:16:38.872Z,52.13
2023-01-19T18:19:05.571Z,51.78
2023-01-19T18:21:32.636Z,52.54
2023-01-19T18:24:02.142Z,51.16
2023-01-19T18:26:30.509Z,50.88
2023-01-19T18:28:57.913Z,50.00
2023-01-19T18:31:26.458Z,49.22
2023-01-19T18:33:53.374Z,49.62
2023-01-19T18:36:20.438Z,49.28
2023-01-19T18:38:47.736Z,50.73
2023-01-19T18:41:17.117Z,51.72
2023-01-19T18:43:44.079Z,51.39
2023-01-19T18:46:11.271Z,51.04
2023-01-19T18:48:39.286Z,50.83
2023-01-19T18:51:11.131Z,50.21
2023-01-19T18:53:38.538Z,50.52
2023-01-19T18:56:06.193Z,51.34
2023-01-19T18:58:34.000Z,51.37
2023-01-19T19:01:01.767Z,52.47
2023-01-19T19:03:29.186Z,52.73
2023-01-19T19:05:56.146Z,52.40
2023-01-19T19:08:23.162Z,52.18
2023-01-19T19:10:49.912Z,52.88
2023-01-19T19:13:17.761Z,52.55
2023-01-19T19:15:44.661Z,52.21
2023-01-19T19:18:13.969Z,52.34
2023-01-19T19:20:43.169Z,52.28
2023-01-19T19:23:10.581Z,51.96
2023-01-19T19:25:38.113Z,53.30
2023-01-19T19:28:05.019Z,52.90
2023-01-19T19:30:34.359Z,52.06
2023-01-19T19:33:01.294Z,52.27
2023-01-19T19:35:28.173Z,52.81
2023-01-19T19:37:57.558Z,52.84
2023-01-19T19:40:26.162Z,52.38
2023-01-19T19:42:53.313Z,52.70
2023-01-19T19:45:20.707Z,52.56
2023-01-19T19:47:47.607Z,53.23
2023-01-19T19:50:14.791Z,52.89
2023-01-19T19:52:44.126Z,53.44
2023-01-19T19:55:13.298Z,52.25
2023-01-19T19:57:41.828Z,52.70
2023-01-19T20:00:10.954Z,51.38
2023-01-19T20:02:39.451Z,52.09
2023-01-19T20:05:08.296Z,52.64
2023-01-19T20:07:35.397Z,52.58
2023-01-19T20:10:02.195Z,53.33
2023-01-19T20:12:28.984Z,52.90
2023-01-19T20:14:55.786Z,53.62
2023-01-19T20:17:23.168Z,54.42
2023-01-19T20:19:50.036Z,55.38
2023-01-19T20:22:16.747Z,56.79
2023-01-19T20:24:43.545Z,57.82
2023-01-19T20:27:10.409Z,59.02
2023-01-19T20:29:37.312Z,60.35
2023-01-19T20:32:04.110Z,61.48
2023-01-19T20:34:33.727Z,62.25
2023-01-19T20:37:01.796Z,62.45
2023-01-19T20:39:30.270Z,62.72
2023-01-19T20:41:57.340Z,63.71
2023-01-19T20:44:26.058Z,64.46
2023-01-19T20:46:53.778Z,64.86
2023-01-19T20:49:20.685Z,65.63
2023-01-19T20:51:48.342Z,66.11
2023-01-19T20:54:17.290Z,66.31
2023-01-19T20:56:44.360Z,66.85
2023-01-19T20:59:13.011Z,67.40
2023-01-19T21:01:41.643Z,67.42
2023-01-19T21:04:09.458Z,64.66
2023-01-19T21:06:38.720Z,61.51
2023-01-19T21:09:05.607Z,64.29
2023-01-19T21:11:32.502Z,65.11
2023-01-19T21:13:59.336Z,62.96
2023-01-19T21:16:28.396Z,60.83
2023-01-19T21:18:56.048Z,59.37
2023-01-19T21:21:30.787Z,58.57
2023-01-19T21:24:01.062Z,58.62
2023-01-19T21:26:31.643Z,58.86
2023-01-19T21:29:00.265Z,59.36
2023-01-19T21:31:28.281Z,59.44
2023-01-19T21:33:56.571Z,60.26
2023-01-19T21:36:24.771Z,60.87
2023-01-19T21:38:52.628Z,60.69
2023-01-19T21:41:20.240Z,60.82
2023-01-19T21:43:47.463Z,60.79
2023-01-19T21:46:21.369Z,60.07
2023-01-19T21:48:48.539Z,60.55
2023-01-19T21:51:15.744Z,60.92
2023-01-19T21:53:43.213Z,60.62
2023-01-19T21:56:11.257Z,60.96
2023-01-19T21:58:38.456Z,60.54
2023-01-19T22:01:10.849Z,60.94
2023-01-19T22:03:37.821Z,61.04
2023-01-19T22:06:08.622Z,61.85
2023-01-19T22:08:35.821Z,62.18
2023-01-19T22:11:07.942Z,61.67
2023-01-19T22:13:36.218Z,61.96
2023-01-19T22:16:04.447Z,62.74
2023-01-19T22:18:31.338Z,62.78
2023-01-19T22:21:07.600Z,62.80
2023-01-19T22:23:34.627Z,63.79
2023-01-19T22:26:01.633Z,63.70
2023-01-19T22:28:28.423Z,63.88
2023-01-19T22:30:55.205Z,63.49
2023-01-19T22:33:22.025Z,64.18
2023-01-19T22:35:48.804Z,63.64
2023-01-19T22:38:15.587Z,63.71
2023-01-19T22:40:42.329Z,64.35
2023-01-19T22:43:09.085Z,64.40
2023-01-19T22:45:40.661Z,64.00
2023-01-19T22:48:07.381Z,64.69
2023-01-19T22:50:35.370Z,64.51
2023-01-19T22:53:02.140Z,65.10
2023-01-19T22:55:29.862Z,65.80
2023-01-19T22:57:56.672Z,66.04
2023-01-19T23:00:23.830Z,65.42
2023-01-19T23:02:50.540Z,65.72
2023-01-19T23:05:17.535Z,65.34
2023-01-19T23:07:44.277Z,65.71
2023-01-19T23:10:11.484Z,65.04
2023-01-19T23:12:38.339Z,65.66
2023-01-19T23:15:05.645Z,65.96
2023-01-19T23:17:32.486Z,65.91
2023-01-19T23:19:59.136Z,65.05
2023-01-19T23:22:25.887Z,65.53
2023-01-19T23:24:52.550Z,66.13
2023-01-19T23:27:19.400Z,66.07
2023-01-19T23:29:46.146Z,65.97
2023-01-19T23:32:12.899Z,65.44
2023-01-19T23:34:39.715Z,65.85
2023-01-19T23:37:06.457Z,66.36
2023-01-19T23:39:33.198Z,66.68
2023-01-19T23:41:59.982Z,66.96
2023-01-19T23:44:26.686Z,65.81
2023-01-19T23:46:53.390Z,64.82
2023-01-19T23:49:20.122Z,65.12
2023-01-19T23:51:46.872Z,65.85
2023-01-19T23:54:13.537Z,64.59
2023-01-19T23:56:42.728Z,64.50
2023-01-19T23:59:15.302Z,64.82
